createdAt,value
2022-08-10T00:01:51.196Z,101572.31
2022-08-10T00:04:21.514Z,101566.34
2022-08-10T00:06:50.926Z,101566.34
2022-08-10T00:09:20.334Z,101559.88
2022-08-10T00:11:48.423Z,101555.75
2022-08-10T00:14:16.979Z,101555.97
2022-08-10T00:16:45.065Z,101562.72
2022-08-10T00:19:13.138Z,101562.72
2022-08-10T00:21:45.422Z,101554.63
2022-08-10T00:24:13.627Z,101557.34
2022-08-10T00:27:50.095Z,101556.25
2022-08-10T00:29:31.628Z,101558.69
2022-08-10T00:31:59.870Z,101552.75
2022-08-10T00:34:28.875Z,101553.78
2022-08-10T00:36:57.436Z,101552.41
2022-08-10T00:39:26.010Z,101556.19
2022-08-10T00:42:01.983Z,101564.00
2022-08-10T00:44:37.521Z,101553.47
2022-08-10T00:47:06.810Z,101553.72
2022-08-10T00:49:35.123Z,101548.28
2022-08-10T00:52:04.288Z,101551.25
2022-08-10T00:54:32.609Z,101545.84
2022-08-10T00:57:17.670Z,101542.63
2022-08-10T00:59:58.379Z,101541.75
2022-08-10T01:02:29.463Z,101538.22
2022-08-10T01:05:02.094Z,101541.72
2022-08-10T01:07:45.229Z,101545.47
2022-08-10T01:10:23.867Z,101540.88
2022-08-10T01:13:02.385Z,101540.88
2022-08-10T01:15:35.866Z,101538.44
2022-08-10T01:18:08.393Z,101539.78
2022-08-10T01:20:43.314Z,101535.22
2022-08-10T01:23:46.195Z,101535.44
2022-08-10T01:26:31.930Z,101533.28
2022-08-10T01:29:35.161Z,101531.09
2022-08-10T01:32:07.177Z,101538.28
2022-08-10T01:34:44.043Z,101525.06
2022-08-10T01:37:16.448Z,101531.28
2022-08-10T01:39:48.414Z,101522.88
2022-08-10T01:42:20.170Z,101521.75
2022-08-10T01:44:55.094Z,101527.91
2022-08-10T01:47:44.064Z,101516.28
2022-08-10T01:50:21.745Z,101513.53
2022-08-10T01:52:53.066Z,101521.06
2022-08-10T01:55:23.790Z,101511.88
2022-08-10T01:57:54.746Z,101512.94
2022-08-10T02:00:26.070Z,101509.38
2022-08-10T02:02:55.710Z,101517.41
2022-08-10T02:05:29.559Z,101497.97
2022-08-10T02:08:01.111Z,101510.66
2022-08-10T02:10:31.841Z,101506.34
2022-08-10T02:13:01.958Z,101514.69
2022-08-10T02:15:34.721Z,101518.69
2022-08-10T02:18:06.287Z,101518.63
2022-08-10T02:20:42.288Z,101516.94
2022-08-10T02:23:33.046Z,101518.56
2022-08-10T02:26:04.609Z,101518.03
2022-08-10T02:28:35.568Z,101514.50
2022-08-10T02:31:08.830Z,101524.72
2022-08-10T02:33:56.575Z,101519.03
2022-08-10T02:36:29.235Z,101515.53
2022-08-10T02:39:00.860Z,101519.03
2022-08-10T02:45:03.124Z,101523.09
2022-08-10T02:45:24.228Z,101514.91
2022-08-10T02:47:29.472Z,101521.13
2022-08-10T02:50:24.193Z,101518.38
2022-08-10T02:52:59.594Z,101525.09
2022-08-10T02:55:32.484Z,101521.31
2022-08-10T02:58:13.474Z,101531.78
2022-08-10T03:00:49.837Z,101527.72
2022-08-10T03:03:22.529Z,101525.25
2022-08-10T03:05:55.536Z,101522.75
2022-08-10T03:08:27.084Z,101522.44
2022-08-10T03:10:57.926Z,101518.38
2022-08-10T03:13:26.971Z,101519.69
2022-08-10T03:15:56.855Z,101521.56
2022-08-10T03:18:27.579Z,101526.13
2022-08-10T03:20:58.056Z,101524.25
2022-08-10T03:23:28.778Z,101522.38
2022-08-10T03:25:59.866Z,101523.69
2022-08-10T03:28:29.862Z,101529.34
2022-08-10T03:30:59.565Z,101510.41
2022-08-10T03:33:32.506Z,101517.50
2022-08-10T03:36:41.416Z,101509.09
2022-08-10T03:38:52.068Z,101507.22
2022-08-10T03:41:24.243Z,101510.72
2022-08-10T03:43:54.609Z,101512.28
2022-08-10T03:46:25.802Z,101507.44
2022-08-10T03:48:59.522Z,101515.78
2022-08-10T03:51:30.129Z,101514.69
2022-08-10T03:54:03.839Z,101514.91
2022-08-10T03:56:37.835Z,101517.31
2022-08-10T03:59:08.054Z,101516.72
2022-08-10T04:02:45.762Z,101519.34
2022-08-10T04:04:26.666Z,101516.91
2022-08-10T04:06:56.235Z,101518.78
2022-08-10T04:09:42.859Z,101521.97
2022-08-10T04:12:15.566Z,101517.31
2022-08-10T04:14:50.965Z,101519.22
2022-08-10T04:18:02.989Z,101515.97
2022-08-10T04:20:16.465Z,101523.78
2022-08-10T04:22:45.877Z,101517.25
2022-08-10T04:25:16.593Z,101522.09
2022-08-10T04:27:45.537Z,101516.97
2022-08-10T04:30:14.076Z,101518.00
2022-08-10T04:32:44.799Z,101514.75
2022-08-10T04:35:15.283Z,101517.78
2022-08-10T04:37:47.553Z,101514.50
2022-08-10T04:40:28.401Z,101514.50
2022-08-10T04:43:02.366Z,101515.31
2022-08-10T04:45:49.795Z,101519.06
2022-08-10T04:48:40.839Z,101525.50
2022-08-10T04:51:16.817Z,101521.75
2022-08-10T04:54:04.706Z,101514.16
2022-08-10T04:56:37.189Z,101516.84
2022-08-10T04:59:06.663Z,101519.78
2022-08-10T05:02:22.357Z,101510.06
2022-08-10T05:04:36.678Z,101521.66
2022-08-10T05:07:10.758Z,101515.47
2022-08-10T05:10:01.557Z,101515.47
2022-08-10T05:12:27.884Z,101516.28
2022-08-10T05:14:56.360Z,101513.84
2022-08-10T05:17:24.926Z,101509.75
2022-08-10T05:20:04.321Z,101514.31
2022-08-10T05:22:37.051Z,101523.28
2022-08-10T05:25:06.927Z,101527.63
2022-08-10T05:27:35.487Z,101517.91
2022-08-10T05:30:04.345Z,101515.13
2022-08-10T05:32:55.465Z,101523.53
2022-08-10T05:35:21.593Z,101528.03
2022-08-10T05:38:10.406Z,101524.00
2022-08-10T05:40:46.242Z,101526.88
2022-08-10T05:43:19.356Z,101530.38
2022-08-10T05:46:17.165Z,101529.56
2022-08-10T05:48:56.966Z,101527.06
2022-08-10T05:51:25.911Z,101529.16
2022-08-10T05:54:02.199Z,101533.72
2022-08-10T05:56:53.450Z,101533.72
2022-08-10T06:00:29.473Z,101544.81
2022-08-10T06:02:31.616Z,101538.63
2022-08-10T06:05:06.360Z,101542.19
2022-08-10T06:07:38.536Z,101547.59
2022-08-10T06:10:12.846Z,101546.84
2022-08-10T06:12:55.412Z,101542.53
2022-08-10T06:15:51.703Z,101540.41
2022-08-10T06:18:19.214Z,101545.38
2022-08-10T06:20:52.473Z,101537.41
2022-08-10T06:23:24.976Z,101536.16
2022-08-10T06:26:11.935Z,101540.88
2022-08-10T06:29:02.129Z,101539.41
2022-08-10T06:31:48.184Z,101537.31
2022-08-10T06:34:28.112Z,101540.19
2022-08-10T06:37:01.718Z,101534.34
2022-08-10T06:39:38.281Z,101537.97
2022-08-10T06:42:27.030Z,101531.69
2022-08-10T06:44:59.350Z,101540.19
2022-08-10T06:47:33.994Z,101536.78
2022-08-10T06:50:11.804Z,101542.84
2022-08-10T06:52:41.323Z,101534.88
2022-08-10T06:55:16.736Z,101540.09
2022-08-10T06:57:59.754Z,101534.78
2022-08-10T07:00:34.321Z,101540.31
2022-08-10T07:03:08.084Z,101537.13
2022-08-10T07:05:40.491Z,101540.72
2022-08-10T07:08:12.178Z,101544.31
2022-08-10T07:10:46.378Z,101546.78
2022-08-10T07:14:15.634Z,101547.66
2022-08-10T07:16:09.539Z,101549.91
2022-08-10T07:18:38.462Z,101551.63
2022-08-10T07:21:08.349Z,101551.66
2022-08-10T07:23:57.162Z,101555.78
2022-08-10T07:26:28.273Z,101548.84
2022-08-10T07:28:59.484Z,101556.44
2022-08-10T07:31:54.312Z,101551.34
2022-08-10T07:34:21.674Z,101552.22
2022-08-10T07:37:00.206Z,101556.31
2022-08-10T07:40:02.608Z,101555.25
2022-08-10T07:42:23.243Z,101556.63
2022-08-10T07:44:53.611Z,101553.09
2022-08-10T07:47:46.390Z,101559.59
2022-08-10T07:50:20.658Z,101557.44
2022-08-10T07:52:52.534Z,101550.97
2022-08-10T07:56:04.785Z,101553.94
2022-08-10T07:58:12.940Z,101555.00
2022-08-10T08:00:45.337Z,101553.63
2022-08-10T08:03:15.228Z,101563.63
2022-08-10T08:05:58.882Z,101556.28
2022-08-10T08:08:34.927Z,101559.00
2022-08-10T08:11:04.195Z,101560.06
2022-08-10T08:13:35.309Z,101554.31
2022-08-10T08:16:18.304Z,101555.66
2022-08-10T08:19:09.896Z,101554.47
2022-08-10T08:24:07.521Z,101558.22
2022-08-10T08:24:33.349Z,101553.28
2022-08-10T08:27:03.602Z,101548.91
2022-08-10T08:29:36.004Z,101547.22
2022-08-10T08:32:06.972Z,101544.97
2022-08-10T08:34:39.031Z,101546.00
2022-08-10T08:37:10.215Z,101541.13
2022-08-10T08:39:39.803Z,101540.53
2022-08-10T08:42:35.855Z,101538.84
2022-08-10T08:45:15.991Z,101532.53
2022-08-10T08:48:10.224Z,101528.94
2022-08-10T08:50:55.246Z,101532.06
2022-08-10T08:54:03.180Z,101543.38
2022-08-10T08:56:46.906Z,101539.13
2022-08-10T08:59:31.600Z,101537.94
2022-08-10T09:02:16.569Z,101537.06
2022-08-10T09:05:02.817Z,101533.13
2022-08-10T09:08:02.071Z,101534.91
2022-08-10T09:10:45.181Z,101531.75
2022-08-10T09:13:27.364Z,101529.19
2022-08-10T09:16:10.744Z,101522.53
2022-08-10T09:18:48.170Z,101528.94
2022-08-10T09:21:25.730Z,101519.81
2022-08-10T09:24:05.773Z,101527.28
2022-08-10T09:26:49.034Z,101513.84
2022-08-10T09:29:28.019Z,101511.34
2022-08-10T09:36:14.574Z,101503.53
2022-08-10T09:36:26.378Z,101513.97
2022-08-10T09:38:09.190Z,101509.47
2022-08-10T09:41:00.229Z,101506.09
2022-08-10T09:43:50.120Z,101502.38
2022-08-10T09:46:34.510Z,101502.00
2022-08-10T09:49:10.891Z,101493.22
2022-08-10T09:51:57.344Z,101490.63
2022-08-10T09:54:45.094Z,101497.56
2022-08-10T09:57:44.747Z,101489.19
2022-08-10T10:00:13.057Z,101486.56
2022-08-10T10:03:03.307Z,101480.44
2022-08-10T10:05:51.325Z,101482.75
2022-08-10T10:08:31.655Z,101473.88
2022-08-10T10:11:20.505Z,101474.09
2022-08-10T10:14:06.359Z,101472.66
2022-08-10T10:17:01.066Z,101479.00
2022-08-10T10:19:46.546Z,101460.38
2022-08-10T10:22:26.634Z,101455.94
2022-08-10T10:25:19.886Z,101466.31
2022-08-10T10:28:00.110Z,101463.91
2022-08-10T10:30:38.514Z,101466.84
2022-08-10T10:33:15.839Z,101459.47
2022-08-10T10:35:52.697Z,101459.38
2022-08-10T10:38:24.606Z,101460.59
2022-08-10T10:41:03.724Z,101455.63
2022-08-10T10:43:46.460Z,101452.63
2022-08-10T10:46:27.719Z,101453.84
2022-08-10T10:49:05.066Z,101444.94
2022-08-10T10:51:40.342Z,101440.59
2022-08-10T10:54:13.226Z,101432.41
2022-08-10T10:56:53.648Z,101433.28
2022-08-10T10:59:56.123Z,101427.59
2022-08-10T11:02:38.789Z,101430.00
2022-08-10T11:05:20.191Z,101425.38
2022-08-10T11:07:56.797Z,101427.50
2022-08-10T11:10:33.182Z,101420.19
2022-08-10T11:14:25.270Z,101414.00
2022-08-10T11:16:18.519Z,101409.63
2022-08-10T11:19:00.636Z,101404.44
2022-08-10T11:21:39.037Z,101399.47
2022-08-10T11:24:47.593Z,101404.25
2022-08-10T11:27:21.500Z,101405.31
2022-08-10T11:29:59.929Z,101398.13
2022-08-10T11:32:38.578Z,101396.44
2022-08-10T11:35:15.161Z,101396.78
2022-08-10T11:38:31.785Z,101393.56
2022-08-10T11:40:52.750Z,101390.69
2022-08-10T11:43:27.314Z,101388.53
2022-08-10T11:46:07.928Z,101379.97
2022-08-10T11:48:54.477Z,101387.13
2022-08-10T11:51:36.541Z,101381.22
2022-08-10T11:54:10.406Z,101370.94
2022-08-10T11:56:49.263Z,101378.56
2022-08-10T11:59:36.553Z,101375.03
2022-08-10T12:02:08.647Z,101363.66
2022-08-10T12:04:41.961Z,101374.75
2022-08-10T12:10:07.123Z,101367.69
2022-08-10T12:10:13.163Z,101374.63
2022-08-10T12:12:49.044Z,101368.53
2022-08-10T12:15:23.377Z,101372.06
2022-08-10T12:17:56.609Z,101372.09
2022-08-10T12:20:31.397Z,101354.84
2022-08-10T12:23:06.448Z,101353.75
2022-08-10T12:25:56.884Z,101358.88
2022-08-10T12:28:49.406Z,101344.53
2022-08-10T12:31:23.014Z,101349.03
2022-08-10T12:34:08.017Z,101358.22
2022-08-10T12:36:43.294Z,101348.06
2022-08-10T12:39:18.396Z,101344.69
2022-08-10T12:41:54.473Z,101333.41
2022-08-10T12:44:41.057Z,101338.72
2022-08-10T12:47:22.199Z,101339.41
2022-08-10T12:50:13.736Z,101342.13
2022-08-10T12:53:06.433Z,101324.25
2022-08-10T12:55:51.839Z,101317.47
2022-08-10T12:58:57.061Z,101319.25
2022-08-10T13:01:16.624Z,101328.63
2022-08-10T13:04:21.364Z,101331.16
2022-08-10T13:06:46.501Z,101327.78
2022-08-10T13:09:21.988Z,101323.28
2022-08-10T13:12:35.267Z,101320.03
2022-08-10T13:14:52.212Z,101308.00
2022-08-10T13:17:32.419Z,101317.13
2022-08-10T13:20:17.410Z,101304.28
2022-08-10T13:22:49.726Z,101309.47
2022-08-10T13:25:24.499Z,101300.41
2022-08-10T13:28:01.042Z,101297.34
2022-08-10T13:30:50.842Z,101309.78
2022-08-10T13:34:41.631Z,101303.34
2022-08-10T13:36:10.466Z,101288.69
2022-08-10T13:38:41.460Z,101285.75
2022-08-10T13:41:12.385Z,101287.19
2022-08-10T13:43:53.085Z,101279.31
2022-08-10T13:46:24.273Z,101275.91
2022-08-10T13:48:53.831Z,101268.81
2022-08-10T13:51:56.606Z,101264.66
2022-08-10T13:54:19.714Z,101261.47
2022-08-10T13:56:53.821Z,101268.47
2022-08-10T14:00:34.380Z,101267.03
2022-08-10T14:02:23.122Z,101259.78
2022-08-10T14:04:52.725Z,101261.91
2022-08-10T14:07:23.109Z,101262.19
2022-08-10T14:09:53.930Z,101260.72
2022-08-10T14:12:41.091Z,101250.59
2022-08-10T14:15:15.177Z,101248.94
2022-08-10T14:17:46.500Z,101247.50
2022-08-10T14:20:21.420Z,101238.94
2022-08-10T14:22:50.856Z,101234.75
2022-08-10T14:25:19.860Z,101233.63
2022-08-10T14:28:03.200Z,101229.94
2022-08-10T14:30:35.359Z,101219.84
2022-08-10T14:33:05.501Z,101218.84
2022-08-10T14:36:19.450Z,101223.34
2022-08-10T14:38:33.712Z,101212.06
2022-08-10T14:41:05.966Z,101213.13
2022-08-10T14:43:41.237Z,101203.66
2022-08-10T14:46:13.663Z,101207.47
2022-08-10T14:48:49.055Z,101209.72
2022-08-10T14:51:21.703Z,101209.38
2022-08-10T14:53:54.813Z,101210.31
2022-08-10T14:56:28.183Z,101215.13
2022-08-10T14:59:06.964Z,101207.38
2022-08-10T15:02:00.000Z,101199.44
2022-08-10T15:04:29.145Z,101204.09
2022-08-10T15:07:01.009Z,101187.94
2022-08-10T15:10:00.747Z,101198.22
2022-08-10T15:12:27.505Z,101191.28
2022-08-10T15:15:02.157Z,101197.56
2022-08-10T15:17:35.333Z,101197.28
2022-08-10T15:20:13.412Z,101193.28
2022-08-10T15:22:50.159Z,101196.13
2022-08-10T15:25:24.790Z,101191.84
2022-08-10T15:27:57.161Z,101183.59
2022-08-10T15:30:32.231Z,101183.13
2022-08-10T15:33:57.681Z,101184.69
2022-08-10T15:36:34.341Z,101180.69
2022-08-10T15:39:17.212Z,101174.72
2022-08-10T15:42:00.245Z,101178.75
2022-08-10T15:44:39.398Z,101167.66
2022-08-10T15:47:15.243Z,101168.47
2022-08-10T15:49:53.903Z,101164.91
2022-08-10T15:53:01.299Z,101160.91
2022-08-10T15:55:43.843Z,101158.69
2022-08-10T15:58:12.390Z,101155.41
2022-08-10T16:00:50.634Z,101164.91
2022-08-10T16:03:27.906Z,101151.25
2022-08-10T16:06:01.640Z,101156.44
2022-08-10T16:08:37.593Z,101156.81
2022-08-10T16:11:38.320Z,101155.88
2022-08-10T16:14:18.633Z,101153.13
2022-08-10T16:16:51.779Z,101152.44
2022-08-10T16:19:25.710Z,101151.97
2022-08-10T16:22:35.461Z,101149.44
2022-08-10T16:24:54.092Z,101153.91
2022-08-10T16:27:27.656Z,101151.00
2022-08-10T16:30:00.959Z,101149.59
2022-08-10T16:32:32.115Z,101148.28
2022-08-10T16:35:09.160Z,101151.00
2022-08-10T16:37:58.410Z,101157.97
2022-08-10T16:40:30.863Z,101151.16
2022-08-10T16:43:02.591Z,101145.53
2022-08-10T16:45:35.465Z,101146.00
2022-08-10T16:48:07.759Z,101146.78
2022-08-10T16:50:42.007Z,101156.63
2022-08-10T16:53:15.803Z,101147.78
2022-08-10T16:55:50.517Z,101139.44
2022-08-10T16:58:25.892Z,101148.91
2022-08-10T17:00:59.212Z,101150.06
2022-08-10T17:04:08.684Z,101139.94
2022-08-10T17:06:30.463Z,101148.31
2022-08-10T17:09:02.616Z,101140.44
2022-08-10T17:11:34.166Z,101135.09
2022-08-10T17:14:05.146Z,101140.00
2022-08-10T17:16:38.614Z,101135.00
2022-08-10T17:19:14.519Z,101128.41
2022-08-10T17:21:52.340Z,101128.25
2022-08-10T17:24:25.575Z,101137.94
2022-08-10T17:26:56.756Z,101131.06
2022-08-10T17:29:59.160Z,101137.44
2022-08-10T17:32:31.686Z,101149.06
2022-08-10T17:35:05.415Z,101136.06
2022-08-10T17:37:44.532Z,101131.41
2022-08-10T17:40:17.409Z,101128.84
2022-08-10T17:42:48.958Z,101128.50
2022-08-10T17:45:46.998Z,101127.22
2022-08-10T17:48:12.253Z,101120.31
2022-08-10T17:50:45.516Z,101125.75
2022-08-10T17:53:20.565Z,101122.06
2022-08-10T17:55:52.214Z,101118.06
2022-08-10T17:58:25.696Z,101111.94
2022-08-10T18:01:38.493Z,101115.81
2022-08-10T18:03:53.780Z,101121.75
2022-08-10T18:06:24.307Z,101122.25
2022-08-10T18:08:58.224Z,101119.00
2022-08-10T18:11:30.510Z,101125.91
2022-08-10T18:14:03.513Z,101124.47
2022-08-10T18:16:34.128Z,101123.84
2022-08-10T18:19:06.653Z,101126.06
2022-08-10T18:21:39.525Z,101132.84
2022-08-10T18:24:16.511Z,101127.53
2022-08-10T18:26:49.474Z,101133.00
2022-08-10T18:29:20.690Z,101130.09
2022-08-10T18:31:56.554Z,101128.66
2022-08-10T18:34:27.892Z,101134.75
2022-08-10T18:36:58.994Z,101133.66
2022-08-10T18:39:32.972Z,101137.66
2022-08-10T18:42:10.298Z,101135.09
2022-08-10T18:44:44.338Z,101140.38
2022-08-10T18:47:16.971Z,101143.09
2022-08-10T18:50:01.857Z,101150.50
2022-08-10T18:52:35.582Z,101140.69
2022-08-10T18:55:24.430Z,101148.56
2022-08-10T18:58:10.737Z,101143.75
2022-08-10T19:00:57.523Z,101154.19
2022-08-10T19:03:53.934Z,101145.34
2022-08-10T19:06:44.103Z,101143.28
2022-08-10T19:09:45.798Z,101148.88
2022-08-10T19:12:43.152Z,101152.72
2022-08-10T19:15:24.444Z,101153.66
2022-08-10T19:18:07.720Z,101147.69
2022-08-10T19:20:43.044Z,101145.91
2022-08-10T19:23:15.824Z,101155.53
2022-08-10T19:26:43.042Z,101156.66
2022-08-10T19:29:02.736Z,101151.84
2022-08-10T19:31:44.815Z,101159.38
2022-08-10T19:34:34.077Z,101166.25
2022-08-10T19:37:15.330Z,101164.78
2022-08-10T19:40:00.725Z,101163.31
2022-08-10T19:42:37.805Z,101167.78
2022-08-10T19:46:00.677Z,101157.03
2022-08-10T19:48:17.380Z,101169.66
2022-08-10T19:50:55.794Z,101174.16
2022-08-10T19:53:33.512Z,101175.38
2022-08-10T19:56:33.247Z,101164.59
2022-08-10T20:00:17.140Z,101164.75
2022-08-10T20:02:21.851Z,101172.25
2022-08-10T20:04:59.412Z,101175.75
2022-08-10T20:07:36.129Z,101175.38
2022-08-10T20:10:13.340Z,101174.22
2022-08-10T20:12:52.111Z,101176.75
2022-08-10T20:15:31.705Z,101178.25
2022-08-10T20:18:23.774Z,101187.19
2022-08-10T20:20:59.914Z,101182.97
2022-08-10T20:23:34.617Z,101187.22
2022-08-10T20:26:07.454Z,101186.06
2022-08-10T20:28:43.364Z,101191.31
2022-08-10T20:31:17.694Z,101189.81
2022-08-10T20:34:01.288Z,101179.84
2022-08-10T20:36:34.128Z,101183.47
2022-08-10T20:39:16.032Z,101185.47
2022-08-10T20:41:58.592Z,101188.31
2022-08-10T20:44:40.379Z,101188.41
2022-08-10T20:47:15.773Z,101187.41
2022-08-10T20:49:54.554Z,101188.13
2022-08-10T20:52:27.539Z,101187.63
2022-08-10T20:55:01.739Z,101188.03
2022-08-10T20:57:58.774Z,101181.41
2022-08-10T21:00:43.752Z,101180.06
2022-08-10T21:03:34.008Z,101186.44
2022-08-10T21:06:41.093Z,101182.19
2022-08-10T21:09:36.203Z,101184.50
2022-08-10T21:12:34.735Z,101182.47
2022-08-10T21:15:19.773Z,101188.31
2022-08-10T21:18:03.827Z,101182.47
2022-08-10T21:20:47.762Z,101186.09
2022-08-10T21:23:30.407Z,101186.19
2022-08-10T21:26:09.734Z,101181.91
2022-08-10T21:28:59.247Z,101185.53
2022-08-10T21:31:41.957Z,101181.81
2022-08-10T21:34:32.117Z,101178.38
2022-08-10T21:37:07.891Z,101175.72
2022-08-10T21:39:50.969Z,101175.50
2022-08-10T21:42:47.978Z,101172.06
2022-08-10T21:45:57.806Z,101174.88
2022-08-10T21:48:57.139Z,101176.03
2022-08-10T21:52:01.499Z,101177.03
2022-08-10T21:55:01.912Z,101171.88
2022-08-10T21:58:05.274Z,101166.31
2022-08-10T22:00:56.297Z,101167.81
2022-08-10T22:03:42.834Z,101164.66
2022-08-10T22:06:31.680Z,101166.63
2022-08-10T22:09:21.614Z,101158.28
2022-08-10T22:12:31.400Z,101161.84
2022-08-10T22:16:03.081Z,101158.91
2022-08-10T22:18:36.236Z,101157.38
2022-08-10T22:21:45.851Z,101148.19
2022-08-10T22:24:45.134Z,101154.78
2022-08-10T22:27:47.011Z,101153.75
2022-08-10T22:30:37.459Z,101155.75
2022-08-10T22:33:47.282Z,101162.34
2022-08-10T22:37:00.364Z,101160.50
2022-08-10T22:40:13.411Z,101156.75
2022-08-10T22:43:10.686Z,101162.22
2022-08-10T22:46:06.514Z,101158.19
2022-08-10T22:49:00.293Z,101149.03
2022-08-10T22:51:57.651Z,101152.03
2022-08-10T22:54:59.555Z,101148.84
2022-08-10T22:57:44.916Z,101146.19
2022-08-10T23:00:17.221Z,101147.03
2022-08-10T23:02:56.485Z,101142.50
2022-08-10T23:05:32.917Z,101144.69
2022-08-10T23:08:06.756Z,101146.06
2022-08-10T23:10:40.961Z,101136.88
2022-08-10T23:13:14.454Z,101140.19
2022-08-10T23:16:24.400Z,101145.38
2022-08-10T23:19:11.593Z,101136.72
2022-08-10T23:22:04.507Z,101133.78
2022-08-10T23:24:38.332Z,101129.22
2022-08-10T23:27:12.900Z,101135.19
2022-08-10T23:30:09.567Z,101130.63
2022-08-10T23:32:44.114Z,101146.38
2022-08-10T23:36:31.402Z,101132.59
2022-08-10T23:38:09.314Z,101132.13
2022-08-10T23:40:38.591Z,101129.44
2022-08-10T23:43:08.717Z,101137.56
2022-08-10T23:45:52.562Z,101131.91
2022-08-10T23:48:26.843Z,101134.91
2022-08-10T23:51:00.802Z,101132.25
2022-08-10T23:53:33.364Z,101134.72
2022-08-10T23:56:09.693Z,101127.97
2022-08-10T23:58:44.027Z,101139.38
